Time;durP1;ratioP1;P1;durP2;ratioP2;P2;SDS_P1;SDS_P2;PMS_P1;PMS_P2;Temp;Humidity;BMP_temperature;BMP_pressure;BME280_temperature;BME280_humidity;BME280_pressure;Samples;Min_cycle;Max_cycle;Signal;HPM_P1;HPM_P2
2023/08/22 00:02:04;;;;;;;7.20;5.87;;;28.60;99.90;;;;;;4963660;28;20194;-69
2023/08/22 00:04:30;;;;;;;6.83;6.13;;;28.60;99.90;;;;;;4958613;28;20202;-70
2023/08/22 00:06:55;;;;;;;7.90;5.77;;;28.60;99.90;;;;;;4961726;28;20727;-69
2023/08/22 00:09:21;;;;;;;9.00;6.53;;;28.60;99.90;;;;;;4964131;28;20202;-69
2023/08/22 00:11:46;;;;;;;7.13;6.47;;;28.60;99.90;;;;;;4963135;28;20199;-69
2023/08/22 00:14:12;;;;;;;7.20;6.50;;;28.60;99.90;;;;;;4959703;28;20252;-70
2023/08/22 00:16:37;;;;;;;9.37;6.47;;;28.60;99.90;;;;;;4961898;28;20245;-70
2023/08/22 00:19:03;;;;;;;10.30;6.10;;;28.60;99.90;;;;;;4962838;28;20216;-70
2023/08/22 00:21:30;;;;;;;7.40;6.70;;;28.60;99.90;;;;;;4955395;28;20182;-69
2023/08/22 00:23:56;;;;;;;8.17;6.90;;;28.60;99.90;;;;;;4957058;28;20213;-69
2023/08/22 00:26:22;;;;;;;8.80;6.40;;;28.60;99.90;;;;;;4958246;28;20446;-70
2023/08/22 00:28:48;;;;;;;7.87;7.07;;;28.60;99.90;;;;;;4957227;28;20186;-70
2023/08/22 00:31:14;;;;;;;8.23;6.93;;;28.60;99.90;;;;;;4963247;28;20523;-70
2023/08/22 00:33:39;;;;;;;15.20;8.60;;;28.60;99.90;;;;;;4956432;28;20310;-70
2023/08/22 00:36:05;;;;;;;7.13;6.40;;;28.50;99.90;;;;;;4957585;28;20205;-69
2023/08/22 00:38:30;;;;;;;6.63;5.93;;;28.50;99.90;;;;;;4955676;28;20273;-69
2023/08/22 00:40:56;;;;;;;7.17;6.17;;;28.50;99.90;;;;;;4953119;28;20633;-70
2023/08/22 00:43:22;;;;;;;7.03;6.33;;;28.50;99.90;;;;;;4961054;28;20565;-70
2023/08/22 00:45:47;;;;;;;7.53;6.73;;;28.50;99.90;;;;;;4958767;28;20601;-69
2023/08/22 00:48:14;;;;;;;8.60;6.80;;;28.50;99.90;;;;;;4956976;28;20215;-69
2023/08/22 00:50:39;;;;;;;7.60;6.80;;;28.50;99.90;;;;;;4967202;28;20182;-69
2023/08/22 00:53:05;;;;;;;9.30;6.10;;;28.50;99.90;;;;;;4962117;28;20822;-69
2023/08/22 00:55:31;;;;;;;7.23;6.40;;;28.50;99.90;;;;;;4958646;28;20613;-69
2023/08/22 00:57:57;;;;;;;8.87;6.60;;;28.50;99.90;;;;;;4957721;28;20232;-69
2023/08/22 01:00:23;;;;;;;8.47;7.13;;;28.40;99.90;;;;;;4959569;28;20442;-69
2023/08/22 01:02:49;;;;;;;7.47;6.77;;;28.40;99.90;;;;;;4955546;28;20640;-69
2023/08/22 01:05:15;;;;;;;7.57;6.87;;;28.40;99.90;;;;;;4958183;28;20208;-69
2023/08/22 01:07:55;;;;;;;8.43;7.73;;;28.30;99.90;;;;;;4960868;28;21001;-70
2023/08/22 01:10:28;;;;;;;7.23;6.53;;;28.30;99.90;;;;;;4958757;28;20183;-70
2023/08/22 01:13:31;;;;;;;8.63;6.53;;;28.30;99.90;;;;;;4957430;28;20930;-69
2023/08/22 01:15:57;;;;;;;8.30;6.47;;;28.30;99.90;;;;;;4882649;29;20472;-69
2023/08/22 01:18:24;;;;;;;10.47;7.10;;;28.30;99.90;;;;;;4945136;28;20483;-69
2023/08/22 01:20:49;;;;;;;9.33;7.40;;;28.30;99.90;;;;;;4956285;28;20500;-69
2023/08/22 01:23:15;;;;;;;8.43;7.10;;;28.20;99.90;;;;;;4958962;28;20972;-69
2023/08/22 01:25:41;;;;;;;10.30;6.67;;;28.20;99.90;;;;;;4957660;28;20209;-69
2023/08/22 01:28:23;;;;;;;6.97;6.37;;;28.20;99.90;;;;;;4953462;28;20711;-69
2023/08/22 01:30:55;;;;;;;9.97;6.83;;;28.20;99.90;;;;;;4956999;28;20190;-69
2023/08/22 01:33:24;;;;;;;7.50;6.80;;;28.10;99.90;;;;;;4955432;28;20449;-69
2023/08/22 01:35:54;;;;;;;9.30;7.13;;;28.10;99.90;;;;;;4956975;28;20470;-69
2023/08/22 01:38:21;;;;;;;7.23;6.33;;;28.00;99.90;;;;;;4954419;28;20480;-69
2023/08/22 01:40:48;;;;;;;6.90;6.20;;;28.00;99.90;;;;;;4961977;28;20449;-69
2023/08/22 01:43:13;;;;;;;8.40;6.93;;;28.00;99.90;;;;;;4959855;28;20474;-69
2023/08/22 01:45:39;;;;;;;7.90;7.10;;;27.90;99.90;;;;;;4961420;28;20462;-69
2023/08/22 01:48:05;;;;;;;8.20;6.60;;;27.90;99.90;;;;;;4960729;28;20278;-69
2023/08/22 01:50:31;;;;;;;11.47;7.50;;;27.90;99.90;;;;;;4963341;28;20556;-69
2023/08/22 01:52:57;;;;;;;7.83;6.97;;;27.90;99.90;;;;;;4960655;28;20186;-69
2023/08/22 01:55:23;;;;;;;8.53;6.63;;;27.90;99.90;;;;;;4958556;28;20668;-69
2023/08/22 01:57:49;;;;;;;12.63;6.33;;;27.90;99.90;;;;;;4959926;28;20476;-69
2023/08/22 02:00:14;;;;;;;8.17;7.10;;;27.90;99.90;;;;;;4954235;28;20193;-69
2023/08/22 02:02:41;;;;;;;7.20;6.50;;;27.90;99.90;;;;;;4961597;28;20199;-69
2023/08/22 02:05:06;;;;;;;8.30;7.50;;;27.90;99.90;;;;;;4959965;28;20289;-69
2023/08/22 02:07:35;;;;;;;8.40;6.50;;;27.80;99.90;;;;;;4959853;28;20570;-69
2023/08/22 02:10:03;;;;;;;7.50;6.80;;;27.80;99.90;;;;;;4959306;28;20230;-69
2023/08/22 02:12:29;;;;;;;7.07;6.40;;;27.80;99.90;;;;;;4957837;28;20495;-69
2023/08/22 02:14:55;;;;;;;8.37;7.23;;;27.80;99.90;;;;;;4956558;28;20561;-69
2023/08/22 02:17:20;;;;;;;7.53;6.70;;;27.80;99.90;;;;;;4961396;28;20618;-69
2023/08/22 02:19:46;;;;;;;7.40;6.63;;;27.80;99.90;;;;;;4960538;28;20249;-69
2023/08/22 02:22:12;;;;;;;6.87;6.17;;;27.70;99.90;;;;;;4962447;28;20541;-69
2023/08/22 02:24:37;;;;;;;11.37;6.63;;;27.70;99.90;;;;;;4962839;28;20349;-69
2023/08/22 02:27:06;;;;;;;8.87;6.87;;;27.60;99.90;;;;;;4963571;28;20272;-69
2023/08/22 02:29:32;;;;;;;8.03;6.53;;;27.60;99.90;;;;;;4962372;28;20191;-69
2023/08/22 02:31:57;;;;;;;11.37;7.47;;;27.50;99.90;;;;;;4959398;28;20527;-69
2023/08/22 02:34:24;;;;;;;12.83;6.97;;;27.50;99.90;;;;;;4961847;28;20528;-69
2023/08/22 02:36:50;;;;;;;9.60;6.33;;;27.40;99.90;;;;;;4959153;28;20194;-69
2023/08/22 02:39:16;;;;;;;8.77;6.53;;;27.30;99.90;;;;;;4960158;28;20527;-69
2023/08/22 02:41:41;;;;;;;7.77;7.00;;;27.30;99.90;;;;;;4961379;28;20194;-69
2023/08/22 02:44:07;;;;;;;6.87;6.13;;;27.30;99.90;;;;;;4964999;28;20215;-69
2023/08/22 02:46:33;;;;;;;7.03;6.00;;;27.30;99.90;;;;;;4961525;28;20187;-69
2023/08/22 02:48:58;;;;;;;7.13;6.00;;;27.30;99.90;;;;;;4960736;28;20198;-69
2023/08/22 02:51:24;;;;;;;6.73;6.13;;;27.30;99.90;;;;;;4962249;28;20203;-69
2023/08/22 02:53:49;;;;;;;7.27;6.60;;;27.30;99.90;;;;;;4955049;28;20187;-69
2023/08/22 02:56:15;;;;;;;8.40;6.67;;;27.30;99.90;;;;;;4962529;28;20198;-69
2023/08/22 02:58:41;;;;;;;6.87;6.27;;;27.30;99.90;;;;;;4961579;28;20269;-69
2023/08/22 03:01:07;;;;;;;7.80;7.00;;;27.30;99.90;;;;;;4960629;28;20233;-69
2023/08/22 03:03:33;;;;;;;9.70;7.00;;;27.30;99.90;;;;;;4958046;28;20445;-69
2023/08/22 03:06:00;;;;;;;7.80;7.00;;;27.20;99.90;;;;;;4963474;28;20571;-69
2023/08/22 03:08:25;;;;;;;7.60;6.60;;;27.20;99.90;;;;;;4962248;28;20523;-70
2023/08/22 03:10:51;;;;;;;7.23;6.53;;;27.20;99.90;;;;;;4962303;28;20450;-69
2023/08/22 03:13:16;;;;;;;7.40;6.37;;;27.10;99.90;;;;;;4963382;28;20664;-69
2023/08/22 03:15:42;;;;;;;8.27;5.90;;;27.10;99.90;;;;;;4961305;28;20221;-69
2023/08/22 03:18:08;;;;;;;10.20;6.50;;;27.00;99.90;;;;;;4962275;28;20264;-69
2023/08/22 03:20:33;;;;;;;7.67;6.60;;;27.00;99.90;;;;;;4963040;28;20325;-69
2023/08/22 03:23:00;;;;;;;7.00;6.27;;;26.90;99.90;;;;;;4962153;28;20201;-69
2023/08/22 03:25:26;;;;;;;9.30;7.90;;;26.80;99.90;;;;;;4961688;28;20269;-69
2023/08/22 03:27:51;;;;;;;7.47;6.77;;;26.70;99.90;;;;;;4959316;28;20480;-69
2023/08/22 03:30:17;;;;;;;7.07;6.40;;;26.70;99.90;;;;;;4957498;28;20273;-69
2023/08/22 03:32:42;;;;;;;9.17;6.50;;;26.70;99.90;;;;;;4963821;28;20252;-69
2023/08/22 03:35:08;;;;;;;8.60;6.67;;;26.60;99.90;;;;;;4960527;28;20597;-69
2023/08/22 03:37:34;;;;;;;8.47;6.60;;;26.70;99.90;;;;;;4963091;28;20263;-69
2023/08/22 03:40:02;;;;;;;7.80;6.40;;;26.60;99.90;;;;;;4960255;28;20653;-69
2023/08/22 03:42:27;;;;;;;7.63;6.23;;;26.60;99.90;;;;;;4964935;28;20187;-69
2023/08/22 03:44:53;;;;;;;8.67;7.77;;;26.50;99.90;;;;;;4957871;28;20492;-69
2023/08/22 03:47:18;;;;;;;8.87;6.60;;;26.50;99.90;;;;;;4962416;28;20187;-69
2023/08/22 03:49:44;;;;;;;10.20;7.20;;;26.60;99.90;;;;;;4958818;28;20300;-69
2023/08/22 03:52:10;;;;;;;8.37;6.97;;;26.50;99.90;;;;;;4961140;28;20244;-69
2023/08/22 03:54:35;;;;;;;11.60;7.00;;;26.50;99.90;;;;;;4958085;28;20230;-69
2023/08/22 03:57:01;;;;;;;8.10;7.30;;;26.50;99.90;;;;;;4954807;28;20214;-69
2023/08/22 03:59:26;;;;;;;7.73;6.93;;;26.50;99.90;;;;;;4955920;28;20221;-69
2023/08/22 04:01:52;;;;;;;9.40;7.30;;;26.50;99.90;;;;;;4960608;28;20257;-69
2023/08/22 04:04:18;;;;;;;9.40;7.10;;;26.50;99.90;;;;;;4961739;28;20242;-69
2023/08/22 04:06:43;;;;;;;8.10;6.87;;;26.40;99.90;;;;;;4962214;28;20268;-70
2023/08/22 04:09:09;;;;;;;8.00;6.67;;;26.50;99.90;;;;;;4953534;28;20566;-69
2023/08/22 04:11:35;;;;;;;9.57;7.03;;;26.50;99.90;;;;;;4959694;28;20186;-69
2023/08/22 04:14:00;;;;;;;9.73;7.30;;;26.50;99.90;;;;;;4966631;28;20194;-69
2023/08/22 04:16:26;;;;;;;10.33;8.07;;;26.40;99.90;;;;;;4965231;28;20664;-69
2023/08/22 04:18:51;;;;;;;7.97;7.23;;;26.40;99.90;;;;;;4962121;28;20308;-69
2023/08/22 04:21:17;;;;;;;8.30;7.43;;;26.40;99.90;;;;;;4962658;28;20178;-69
2023/08/22 04:23:43;;;;;;;9.10;7.10;;;26.40;99.90;;;;;;4960610;28;20206;-69
2023/08/22 04:26:08;;;;;;;10.40;7.20;;;26.40;99.90;;;;;;4961741;28;20684;-69
2023/08/22 04:28:34;;;;;;;7.90;7.10;;;26.40;99.90;;;;;;4964456;28;20640;-69
2023/08/22 04:31:00;;;;;;;9.47;7.47;;;26.40;99.90;;;;;;4958352;28;20183;-69
2023/08/22 04:33:26;;;;;;;10.37;8.13;;;26.40;99.90;;;;;;4961368;28;20512;-69
2023/08/22 04:35:52;;;;;;;8.97;8.07;;;26.40;99.90;;;;;;4955150;28;20214;-69
2023/08/22 04:38:17;;;;;;;8.63;7.20;;;26.40;99.90;;;;;;4966186;28;20221;-69
2023/08/22 04:40:43;;;;;;;10.93;7.97;;;26.40;99.90;;;;;;4959877;28;20183;-69
2023/08/22 04:43:09;;;;;;;10.73;9.10;;;26.40;99.90;;;;;;4958192;28;20214;-69
2023/08/22 04:45:35;;;;;;;8.60;7.77;;;26.40;99.90;;;;;;4963778;28;20779;-69
2023/08/22 04:48:01;;;;;;;10.00;9.10;;;26.40;99.90;;;;;;4959076;28;20640;-69
2023/08/22 04:50:26;;;;;;;9.27;7.97;;;26.30;99.90;;;;;;4960669;28;20450;-69
2023/08/22 04:52:52;;;;;;;9.63;7.80;;;26.30;99.90;;;;;;4960640;28;20217;-69
2023/08/22 04:55:17;;;;;;;9.33;8.17;;;26.30;99.90;;;;;;4959989;28;20226;-69
2023/08/22 04:57:43;;;;;;;9.23;8.13;;;26.30;99.90;;;;;;4959711;28;20207;-69
2023/08/22 05:00:09;;;;;;;8.60;7.47;;;26.20;99.90;;;;;;4956140;28;20193;-69
2023/08/22 05:02:35;;;;;;;12.20;7.63;;;26.20;99.90;;;;;;4960073;28;20703;-70
2023/08/22 05:05:01;;;;;;;8.87;8.07;;;26.20;99.90;;;;;;4961641;28;20540;-70
2023/08/22 05:07:27;;;;;;;9.13;8.30;;;26.10;99.90;;;;;;4958886;28;20541;-70
2023/08/22 05:09:52;;;;;;;8.10;7.23;;;26.00;99.90;;;;;;4961639;28;20214;-70
2023/08/22 05:12:18;;;;;;;8.57;7.53;;;26.00;99.90;;;;;;4960521;28;20195;-70
2023/08/22 05:14:43;;;;;;;11.10;7.87;;;26.00;99.90;;;;;;4958866;28;20285;-70
2023/08/22 05:17:09;;;;;;;9.43;7.37;;;26.00;99.90;;;;;;4961222;28;20179;-70
2023/08/22 05:19:35;;;;;;;8.60;7.80;;;26.00;99.90;;;;;;4963988;28;20615;-68
2023/08/22 05:22:00;;;;;;;8.50;7.60;;;26.00;99.90;;;;;;4960339;28;20880;-68
2023/08/22 05:24:26;;;;;;;8.97;8.17;;;25.90;99.90;;;;;;4963623;28;20205;-68
2023/08/22 05:26:51;;;;;;;11.47;8.00;;;25.80;99.90;;;;;;4964957;28;20190;-68
2023/08/22 05:29:20;;;;;;;9.70;8.70;;;25.60;99.90;;;;;;4959709;28;20233;-68
2023/08/22 05:31:46;;;;;;;10.63;8.80;;;25.60;99.90;;;;;;4955513;28;20209;-67
2023/08/22 05:34:11;;;;;;;9.43;8.50;;;25.50;99.90;;;;;;4960011;28;20462;-67
2023/08/22 05:36:37;;;;;;;9.50;8.50;;;25.50;99.90;;;;;;4958673;28;20233;-68
2023/08/22 05:39:03;;;;;;;9.33;8.23;;;25.60;99.90;;;;;;4958531;28;20230;-68
2023/08/22 05:41:29;;;;;;;10.67;8.47;;;25.50;99.90;;;;;;4958831;28;20179;-68
2023/08/22 05:43:54;;;;;;;9.50;8.60;;;25.50;99.90;;;;;;4962427;28;20444;-69
2023/08/22 05:46:20;;;;;;;9.77;7.90;;;25.50;99.90;;;;;;4957507;28;20182;-69
2023/08/22 05:48:46;;;;;;;11.00;9.97;;;25.60;99.90;;;;;;4960088;28;20458;-69
2023/08/22 05:51:11;;;;;;;9.60;8.60;;;25.60;99.90;;;;;;4956722;28;20278;-69
2023/08/22 05:53:37;;;;;;;10.33;9.20;;;25.60;99.90;;;;;;4966157;28;20194;-69
2023/08/22 05:56:03;;;;;;;10.23;8.20;;;25.70;99.90;;;;;;4965723;28;20218;-69
2023/08/22 05:58:28;;;;;;;8.30;7.50;;;25.60;99.90;;;;;;4962101;28;20214;-69
2023/08/22 06:00:54;;;;;;;8.10;7.30;;;25.60;99.90;;;;;;4965502;28;20197;-67
2023/08/22 06:03:20;;;;;;;8.63;7.73;;;25.60;99.90;;;;;;4964099;28;20190;-69
2023/08/22 06:05:46;;;;;;;9.80;7.80;;;25.60;99.90;;;;;;4963526;28;20308;-68
2023/08/22 06:08:12;;;;;;;8.70;7.90;;;25.70;99.90;;;;;;4959674;28;20195;-69
2023/08/22 06:10:37;;;;;;;8.83;7.47;;;25.70;99.90;;;;;;4960134;28;20251;-68
2023/08/22 06:13:03;;;;;;;9.70;7.63;;;25.50;99.90;;;;;;4962476;28;20449;-68
2023/08/22 06:15:29;;;;;;;10.13;7.40;;;25.50;99.90;;;;;;4966054;28;20687;-68
2023/08/22 06:17:54;;;;;;;9.87;7.60;;;25.60;99.90;;;;;;4964719;28;20301;-67
2023/08/22 06:20:20;;;;;;;9.97;7.13;;;25.60;99.90;;;;;;4963807;28;20201;-68
2023/08/22 06:22:45;;;;;;;9.13;6.83;;;25.80;99.90;;;;;;4962299;28;20202;-68
2023/08/22 06:25:11;;;;;;;10.27;7.40;;;26.10;99.90;;;;;;4961875;28;20202;-68
2023/08/22 06:27:37;;;;;;;9.50;7.00;;;26.20;99.90;;;;;;4964466;28;20701;-69
2023/08/22 06:30:02;;;;;;;8.47;7.67;;;26.00;99.90;;;;;;4961780;28;20656;-68
2023/08/22 06:32:28;;;;;;;8.87;7.97;;;26.00;99.90;;;;;;4963992;28;20943;-68
2023/08/22 06:34:59;;;;;;;9.43;7.83;;;26.00;99.90;;;;;;4962541;28;20210;-68
2023/08/22 06:37:24;;;;;;;9.17;7.43;;;26.10;99.90;;;;;;4964289;28;20289;-68
2023/08/22 06:39:50;;;;;;;9.27;7.20;;;26.20;99.90;;;;;;4964950;28;20438;-68
2023/08/22 06:42:16;;;;;;;9.43;8.30;;;26.20;99.90;;;;;;4964471;28;20187;-68
2023/08/22 06:44:41;;;;;;;8.83;6.87;;;26.20;99.90;;;;;;4963415;28;20249;-68
2023/08/22 06:47:09;;;;;;;7.90;7.10;;;26.30;99.90;;;;;;4960472;28;20194;-69
2023/08/22 06:49:35;;;;;;;8.95;7.97;;;26.20;99.90;;;;;;4960702;28;20533;-68
2023/08/22 06:52:00;;;;;;;10.50;8.90;;;26.30;99.90;;;;;;4964033;28;20314;-68
2023/08/22 06:54:26;;;;;;;15.70;14.13;;;26.50;99.90;;;;;;4964278;28;20225;-68
2023/08/22 06:56:51;;;;;;;10.00;9.10;;;26.60;99.90;;;;;;4966338;28;20192;-68
2023/08/22 06:59:17;;;;;;;13.30;10.77;;;26.50;99.90;;;;;;4959521;28;20247;-68
2023/08/22 07:01:43;;;;;;;11.63;10.33;;;26.50;99.90;;;;;;4962995;28;20194;-69
2023/08/22 07:04:08;;;;;;;11.07;9.50;;;26.60;99.90;;;;;;4960207;28;22318;-69
2023/08/22 07:06:34;;;;;;;12.43;9.60;;;26.70;99.90;;;;;;4962212;28;20326;-69
2023/08/22 07:09:00;;;;;;;12.83;11.43;;;26.80;99.90;;;;;;4958815;28;20182;-69
2023/08/22 07:11:25;;;;;;;9.40;8.50;;;26.80;99.90;;;;;;4961793;28;20472;-69
2023/08/22 07:13:51;;;;;;;11.23;9.67;;;26.80;99.90;;;;;;4960529;28;20187;-69
2023/08/22 07:16:17;;;;;;;15.50;8.90;;;26.90;99.90;;;;;;4962335;28;20218;-69
2023/08/22 07:18:42;;;;;;;10.73;9.70;;;26.80;99.90;;;;;;4966263;28;20242;-69
2023/08/22 07:21:08;;;;;;;12.53;11.23;;;26.90;99.90;;;;;;4953434;28;20446;-70
2023/08/22 07:23:33;;;;;;;15.93;11.50;;;27.00;99.90;;;;;;4963263;28;20214;-69
2023/08/22 07:26:00;;;;;;;12.73;9.93;;;27.10;99.90;;;;;;4959202;28;20221;-69
2023/08/22 07:28:26;;;;;;;10.30;9.47;;;27.20;99.90;;;;;;4957877;28;20198;-70
2023/08/22 07:30:53;;;;;;;10.33;9.33;;;27.20;99.90;;;;;;4950456;28;20438;-70
2023/08/22 07:33:19;;;;;;;12.80;11.50;;;27.20;99.90;;;;;;4959756;28;20277;-69
2023/08/22 07:35:44;;;;;;;10.17;9.10;;;27.20;99.90;;;;;;4960804;28;20853;-68
2023/08/22 07:38:10;;;;;;;9.80;8.90;;;27.30;99.90;;;;;;4957887;28;20198;-69
2023/08/22 07:40:40;;;;;;;12.70;10.40;;;27.40;99.90;;;;;;4960233;28;20724;-69
2023/08/22 07:43:06;;;;;;;11.30;10.10;;;27.50;99.90;;;;;;4955078;28;20257;-69
2023/08/22 07:45:32;;;;;;;13.13;10.10;;;27.40;99.90;;;;;;4960301;28;20878;-72
2023/08/22 07:47:58;;;;;;;12.00;9.43;;;27.40;99.90;;;;;;4957462;28;20636;-74
2023/08/22 07:50:24;;;;;;;16.70;10.90;;;27.40;99.90;;;;;;4960648;28;20229;-74
2023/08/22 07:52:49;;;;;;;11.13;9.73;;;27.40;99.90;;;;;;4953636;28;20802;-74
2023/08/22 07:55:15;;;;;;;14.80;13.07;;;27.40;99.90;;;;;;4963814;28;20337;-74
2023/08/22 07:57:41;;;;;;;10.07;9.17;;;27.40;99.90;;;;;;4962975;28;20649;-75
2023/08/22 08:00:10;;;;;;;11.10;9.10;;;27.50;99.90;;;;;;4961818;28;20723;-73
2023/08/22 08:02:35;;;;;;;10.43;8.80;;;27.60;99.90;;;;;;4964025;28;20230;-75
2023/08/22 08:05:01;;;;;;;9.90;8.70;;;27.60;99.90;;;;;;4960700;28;20458;-75
2023/08/22 08:07:26;;;;;;;10.20;8.97;;;27.70;99.90;;;;;;4963498;28;20201;-73
2023/08/22 08:09:52;;;;;;;9.30;8.40;;;27.70;99.90;;;;;;4948753;28;20278;-75
2023/08/22 08:12:17;;;;;;;9.40;8.50;;;27.70;99.90;;;;;;4963310;28;20269;-75
2023/08/22 08:14:43;;;;;;;15.23;10.27;;;27.70;99.90;;;;;;4957894;28;20639;-75
2023/08/22 08:17:09;;;;;;;9.90;9.00;;;27.70;99.90;;;;;;4957428;28;20245;-75
2023/08/22 08:19:34;;;;;;;9.00;8.20;;;27.80;99.90;;;;;;4960947;28;20214;-75
2023/08/22 08:22:00;;;;;;;11.83;8.80;;;27.80;99.90;;;;;;4958858;28;20285;-75
2023/08/22 08:24:25;;;;;;;10.53;8.70;;;27.90;99.90;;;;;;4960590;28;20261;-75
2023/08/22 08:26:51;;;;;;;9.77;8.53;;;27.90;99.90;;;;;;4959798;28;20566;-75
2023/08/22 08:29:18;;;;;;;9.77;8.80;;;28.00;99.90;;;;;;4959273;28;20191;-75
2023/08/22 08:31:43;;;;;;;14.57;9.10;;;28.10;99.90;;;;;;4956524;28;20221;-75
2023/08/22 08:34:09;;;;;;;10.53;7.50;;;28.10;99.90;;;;;;4959362;28;21310;-75
2023/08/22 08:36:35;;;;;;;8.57;7.77;;;28.10;99.90;;;;;;4962539;28;20265;-75
2023/08/22 08:39:00;;;;;;;10.63;8.00;;;28.00;99.90;;;;;;4957454;28;20221;-75
2023/08/22 08:41:31;;;;;;;8.67;7.80;;;28.10;99.90;;;;;;4961975;28;20214;-75
2023/08/22 08:43:57;;;;;;;8.33;6.93;;;28.30;99.90;;;;;;4959609;28;20217;-75
2023/08/22 08:46:25;;;;;;;7.80;7.00;;;28.30;99.90;;;;;;4959021;28;20426;-74
2023/08/22 08:48:51;;;;;;;8.63;7.83;;;28.30;99.90;;;;;;4955457;28;20245;-74
2023/08/22 08:51:17;;;;;;;7.30;6.13;;;28.20;99.90;;;;;;4954468;28;20446;-71
2023/08/22 08:53:45;;;;;;;8.60;6.87;;;28.30;99.90;;;;;;4958354;28;20437;-74
2023/08/22 08:56:11;;;;;;;5.60;5.07;;;28.40;99.90;;;;;;4957736;28;20222;-74
2023/08/22 08:58:38;;;;;;;6.17;5.00;;;28.40;99.90;;;;;;4954765;28;20955;-74
2023/08/22 09:01:06;;;;;;;11.47;6.27;;;28.40;99.90;;;;;;4959200;28;20671;-73
2023/08/22 09:03:32;;;;;;;6.10;5.23;;;28.50;99.90;;;;;;4957947;28;20438;-73
2023/08/22 09:05:58;;;;;;;6.33;5.13;;;28.60;99.90;;;;;;4954542;28;20465;-73
2023/08/22 09:08:24;;;;;;;6.40;4.40;;;28.70;99.90;;;;;;4957886;28;20638;-71
2023/08/22 09:10:51;;;;;;;5.77;5.20;;;28.70;99.90;;;;;;4960140;28;20461;-71
2023/08/22 09:13:24;;;;;;;5.67;4.97;;;28.70;99.90;;;;;;4958682;28;20201;-72
2023/08/22 09:15:50;;;;;;;6.20;5.60;;;28.70;99.90;;;;;;4958163;28;20979;-73
2023/08/22 09:18:16;;;;;;;7.87;5.53;;;28.80;99.90;;;;;;4959702;28;20476;-75
2023/08/22 09:20:45;;;;;;;5.70;5.00;;;28.90;99.90;;;;;;4960811;28;20365;-74
2023/08/22 09:23:28;;;;;;;5.27;4.77;;;29.00;99.90;;;;;;4961033;28;20546;-73
2023/08/22 09:25:54;;;;;;;5.23;4.73;;;29.00;99.90;;;;;;4960179;28;20453;-72
2023/08/22 09:28:20;;;;;;;5.20;4.80;;;29.10;99.90;;;;;;4959519;28;20445;-72
2023/08/22 09:30:50;;;;;;;9.30;5.70;;;29.10;99.90;;;;;;4963390;28;20457;-74
2023/08/22 09:33:16;;;;;;;12.20;5.00;;;29.30;99.90;;;;;;4965010;28;20190;-75
2023/08/22 09:35:44;;;;;;;6.70;5.20;;;29.40;99.90;;;;;;4964904;28;20465;-74
2023/08/22 09:38:13;;;;;;;7.53;4.97;;;29.30;99.90;;;;;;4963871;28;20485;-76
2023/08/22 09:40:54;;;;;;;7.83;4.77;;;29.30;99.90;;;;;;4957247;28;20597;-73
2023/08/22 09:43:21;;;;;;;6.90;5.07;;;29.30;99.90;;;;;;4963549;28;20437;-74
2023/08/22 09:45:49;;;;;;;6.83;5.20;;;29.30;99.90;;;;;;4962598;28;20456;-74
2023/08/22 09:48:21;;;;;;;5.13;4.53;;;29.30;99.90;;;;;;4965866;28;20484;-74
2023/08/22 09:50:51;;;;;;;8.83;5.40;;;29.30;99.90;;;;;;4963092;28;20560;-74
2023/08/22 09:53:19;;;;;;;6.00;4.80;;;29.40;99.90;;;;;;4966095;28;20438;-73
2023/08/22 09:55:45;;;;;;;6.87;5.17;;;29.40;99.90;;;;;;4960116;28;20482;-73
2023/08/22 09:58:12;;;;;;;12.07;5.60;;;29.40;99.90;;;;;;4962404;28;20469;-72
2023/08/22 10:00:37;;;;;;;6.80;5.33;;;29.40;99.90;;;;;;4961783;28;20476;-72
2023/08/22 10:03:04;;;;;;;5.87;5.20;;;29.50;99.90;;;;;;4963320;28;21077;-74
2023/08/22 10:05:32;;;;;;;8.40;5.73;;;29.50;99.90;;;;;;4966271;28;20297;-74
2023/08/22 10:07:57;;;;;;;7.70;5.43;;;29.60;99.90;;;;;;4960955;28;20445;-74
2023/08/22 10:10:24;;;;;;;5.87;5.37;;;29.60;99.90;;;;;;4963099;28;21097;-73
2023/08/22 10:12:50;;;;;;;5.80;5.20;;;29.80;99.90;;;;;;4960011;28;20206;-72
2023/08/22 10:15:16;;;;;;;6.70;5.37;;;29.80;99.90;;;;;;4968698;28;20453;-74
2023/08/22 10:17:43;;;;;;;9.47;5.80;;;29.80;99.90;;;;;;4963009;28;20818;-74
2023/08/22 10:20:12;;;;;;;7.40;5.30;;;29.90;99.90;;;;;;4962189;28;20467;-74
2023/08/22 10:22:38;;;;;;;7.90;5.33;;;29.90;99.90;;;;;;4961891;28;20449;-73
2023/08/22 10:25:05;;;;;;;11.73;5.20;;;30.00;99.90;;;;;;4964266;28;20454;-73
2023/08/22 10:27:32;;;;;;;7.27;5.33;;;30.10;99.90;;;;;;4963395;28;20197;-73
2023/08/22 10:30:13;;;;;;;6.00;5.20;;;30.20;99.90;;;;;;4962260;28;20467;-74
2023/08/22 10:32:39;;;;;;;5.00;4.50;;;30.20;99.90;;;;;;4963041;28;20437;-73
2023/08/22 10:35:14;;;;;;;6.40;4.60;;;30.30;99.90;;;;;;4962784;28;22028;-73
2023/08/22 10:37:53;;;;;;;5.90;5.10;;;30.30;99.90;;;;;;4964022;28;20428;-71
2023/08/22 10:40:33;;;;;;;6.73;4.57;;;30.40;99.90;;;;;;4964257;28;20433;-72
2023/08/22 10:43:04;;;;;;;6.30;4.80;;;30.40;99.90;;;;;;4962315;28;20437;-71
2023/08/22 10:45:48;;;;;;;6.13;4.60;;;30.30;99.90;;;;;;4960221;28;20509;-73
2023/08/22 10:48:17;;;;;;;7.30;4.20;;;30.30;99.90;;;;;;4963013;28;20977;-71
2023/08/22 10:50:44;;;;;;;10.40;5.30;;;30.30;99.90;;;;;;4961885;28;20529;-74
2023/08/22 10:53:18;;;;;;;7.60;4.53;;;30.40;99.90;;;;;;4960990;28;20442;-75
2023/08/22 10:55:44;;;;;;;5.70;5.10;;;30.30;99.90;;;;;;4961928;28;20847;-74
2023/08/22 10:58:36;;;;;;;6.47;4.80;;;30.40;99.90;;;;;;4963754;28;20473;-73
2023/08/22 11:01:09;;;;;;;4.30;3.90;;;30.50;99.90;;;;;;4960902;28;20630;-73
2023/08/22 11:03:35;;;;;;;5.70;4.67;;;30.50;99.90;;;;;;4962447;28;20441;-73
2023/08/22 11:06:01;;;;;;;5.00;4.33;;;30.50;99.90;;;;;;4960520;28;20449;-72
2023/08/22 11:08:26;;;;;;;4.77;4.33;;;30.60;99.90;;;;;;4961893;28;20213;-72
2023/08/22 11:10:52;;;;;;;6.07;4.30;;;30.60;99.90;;;;;;4959987;28;20468;-73
2023/08/22 11:13:18;;;;;;;6.67;4.80;;;30.70;99.90;;;;;;4964109;28;20187;-73
2023/08/22 11:15:49;;;;;;;4.80;4.30;;;30.80;99.90;;;;;;4963721;28;20454;-73
2023/08/22 11:18:15;;;;;;;6.60;4.97;;;31.00;99.90;;;;;;4962980;28;20218;-72
2023/08/22 11:20:42;;;;;;;5.00;4.57;;;31.10;99.90;;;;;;4957241;28;20779;-72
2023/08/22 11:23:08;;;;;;;5.97;4.33;;;31.10;99.90;;;;;;4963214;28;20190;-73
2023/08/22 11:25:36;;;;;;;6.57;4.70;;;31.20;99.90;;;;;;4962378;28;21013;-72
2023/08/22 11:28:02;;;;;;;6.87;5.10;;;31.30;99.90;;;;;;4964114;28;20196;-72
2023/08/22 11:30:28;;;;;;;5.00;4.50;;;31.40;99.90;;;;;;4961421;28;20446;-73
2023/08/22 11:32:54;;;;;;;7.03;4.33;;;31.40;99.90;;;;;;4962471;28;20441;-73
2023/08/22 11:35:19;;;;;;;5.47;4.33;;;31.40;99.90;;;;;;4960012;28;20265;-73
2023/08/22 11:37:45;;;;;;;6.47;4.27;;;31.40;99.90;;;;;;4963283;28;20202;-73
2023/08/22 11:40:14;;;;;;;5.83;4.20;;;31.50;99.90;;;;;;4960191;28;20182;-73
2023/08/22 11:42:40;;;;;;;5.17;4.30;;;31.40;99.90;;;;;;4966529;28;20192;-75
2023/08/22 11:45:22;;;;;;;9.60;4.53;;;31.30;99.90;;;;;;4962625;28;20473;-73
2023/08/22 11:47:49;;;;;;;4.57;4.17;;;31.40;99.90;;;;;;4957852;28;20434;-73
2023/08/22 11:50:25;;;;;;;5.40;4.60;;;31.40;99.90;;;;;;4963972;28;21034;-72
2023/08/22 11:52:55;;;;;;;4.63;4.20;;;31.50;99.90;;;;;;4961921;28;21002;-72
2023/08/22 11:55:26;;;;;;;9.30;3.90;;;31.60;99.90;;;;;;4965943;28;20508;-72
2023/08/22 11:58:03;;;;;;;6.50;3.47;;;31.70;99.90;;;;;;4967262;28;20816;-72
2023/08/22 12:00:30;;;;;;;5.37;3.87;;;31.80;99.90;;;;;;4960677;28;20429;-72
2023/08/22 12:02:57;;;;;;;4.43;3.90;;;31.80;99.90;;;;;;4962304;28;20430;-74
2023/08/22 12:05:48;;;;;;;5.13;3.97;;;31.80;99.90;;;;;;4963220;28;20445;-73
2023/08/22 12:08:13;;;;;;;4.80;3.77;;;32.00;99.90;;;;;;4962703;28;20465;-74
2023/08/22 12:10:46;;;;;;;6.90;4.20;;;32.30;99.90;;;;;;4960219;28;20467;-77
2023/08/22 12:13:14;;;;;;;5.43;4.00;;;32.70;99.90;;;;;;4962282;28;20187;-75
2023/08/22 12:15:40;;;;;;;8.57;4.30;;;32.90;99.90;;;;;;4963801;28;20481;-74
2023/08/22 12:18:07;;;;;;;5.97;3.80;;;33.00;99.90;;;;;;4959725;28;20557;-74
2023/08/22 12:20:34;;;;;;;5.10;4.07;;;33.10;99.90;;;;;;4966338;28;20437;-75
2023/08/22 12:23:03;;;;;;;5.23;3.70;;;33.30;99.90;;;;;;4959912;28;20457;-75
2023/08/22 12:25:29;;;;;;;6.17;4.13;;;33.40;99.70;;;;;;4963140;28;20528;-76
2023/08/22 12:27:54;;;;;;;4.23;3.83;;;33.60;99.60;;;;;;4960871;28;20416;-75
2023/08/22 12:30:20;;;;;;;5.07;4.10;;;33.80;99.20;;;;;;4961738;28;20266;-75
2023/08/22 12:32:45;;;;;;;5.00;3.93;;;34.00;98.70;;;;;;4962586;28;20217;-73
2023/08/22 12:35:11;;;;;;;9.93;5.00;;;33.90;98.40;;;;;;4956250;28;20213;-72
2023/08/22 12:37:38;;;;;;;4.30;3.90;;;34.00;98.40;;;;;;4960448;28;20282;-72
2023/08/22 12:40:10;;;;;;;4.60;4.07;;;34.10;98.00;;;;;;4957574;28;20416;-71
2023/08/22 12:42:36;;;;;;;5.10;3.83;;;34.10;97.90;;;;;;4964910;28;20556;-75